Time;durP1;ratioP1;P1;durP2;ratioP2;P2;SDS_P1;SDS_P2;PMS_P1;PMS_P2;Temp;Humidity;BMP_temperature;BMP_pressure;BME280_temperature;BME280_humidity;BME280_pressure;Samples;Min_cycle;Max_cycle;Signal;HPM_P1;HPM_P2
2023/08/17 00:01:23;;;;;;;2.88;0.77;;;18.20;99.90;;;;;;5029563;28;20038;-73
2023/08/17 00:03:49;;;;;;;0.88;0.30;;;18.10;99.90;;;;;;5010502;28;20033;-73
2023/08/17 00:06:15;;;;;;;2.30;0.47;;;18.10;99.90;;;;;;5029261;28;20034;-72
2023/08/17 00:08:41;;;;;;;2.83;0.57;;;18.20;99.90;;;;;;5010803;28;20111;-72
2023/08/17 00:11:07;;;;;;;4.05;1.08;;;18.20;99.90;;;;;;5008235;28;20037;-72
2023/08/17 00:13:32;;;;;;;4.30;0.82;;;18.10;99.90;;;;;;5011056;28;20037;-72
2023/08/17 00:15:58;;;;;;;2.05;0.35;;;18.10;99.90;;;;;;5028210;28;20045;-72
2023/08/17 00:18:23;;;;;;;1.48;0.40;;;18.10;99.90;;;;;;5011444;28;20049;-73
2023/08/17 00:20:49;;;;;;;3.33;1.00;;;18.10;99.90;;;;;;5028100;28;20084;-72
2023/08/17 00:23:14;;;;;;;2.40;0.90;;;18.00;99.90;;;;;;5029381;28;20032;-72
2023/08/17 00:25:40;;;;;;;2.53;0.50;;;18.00;99.90;;;;;;5010862;28;20038;-72
2023/08/17 00:28:06;;;;;;;4.43;1.00;;;18.00;99.90;;;;;;5028329;28;20037;-74
2023/08/17 00:30:31;;;;;;;2.03;0.47;;;18.00;99.90;;;;;;5028634;28;20049;-72
2023/08/17 00:32:57;;;;;;;1.83;0.60;;;18.00;99.90;;;;;;5028151;28;20036;-72
2023/08/17 00:35:22;;;;;;;3.10;0.40;;;17.90;99.90;;;;;;5028950;28;20120;-72
2023/08/17 00:37:48;;;;;;;2.85;1.00;;;17.90;99.90;;;;;;5027412;28;20113;-73
2023/08/17 00:40:13;;;;;;;2.78;0.50;;;17.90;99.90;;;;;;5028819;28;20041;-72
2023/08/17 00:42:39;;;;;;;4.97;0.73;;;17.90;99.90;;;;;;5028374;28;20056;-73
2023/08/17 00:45:05;;;;;;;5.75;0.90;;;17.90;99.90;;;;;;5027823;28;20041;-73
2023/08/17 00:47:31;;;;;;;5.43;1.15;;;17.90;99.90;;;;;;5028568;28;20136;-74
2023/08/17 00:49:59;;;;;;;2.80;0.60;;;17.80;99.90;;;;;;5027804;28;20125;-72
2023/08/17 00:52:24;;;;;;;4.72;0.77;;;17.80;99.90;;;;;;5028682;28;20108;-73
2023/08/17 00:54:50;;;;;;;3.28;0.70;;;17.70;99.90;;;;;;5009513;28;20124;-73
2023/08/17 00:57:16;;;;;;;1.98;0.50;;;17.70;99.90;;;;;;5028470;28;20812;-72
2023/08/17 00:59:41;;;;;;;2.25;0.30;;;17.60;99.90;;;;;;5023861;28;20041;-76
2023/08/17 01:02:07;;;;;;;3.40;0.98;;;17.60;99.90;;;;;;5028350;28;20103;-72
2023/08/17 01:04:33;;;;;;;5.60;0.90;;;17.60;99.90;;;;;;5028025;28;20045;-73
2023/08/17 01:06:59;;;;;;;5.80;1.15;;;17.60;99.90;;;;;;5027359;28;20033;-73
2023/08/17 01:09:24;;;;;;;3.13;1.42;;;17.50;99.90;;;;;;5025629;28;20034;-73
2023/08/17 01:12:24;;;;;;;1.25;0.73;;;17.50;99.90;;;;;;5027060;28;20444;-73
2023/08/17 01:15:03;;;;;;;1.88;0.50;;;17.40;99.90;;;;;;5004966;28;20068;-72
2023/08/17 01:17:36;;;;;;;6.68;0.80;;;17.40;99.90;;;;;;5028134;28;20029;-73
2023/08/17 01:20:04;;;;;;;2.92;0.50;;;17.40;99.90;;;;;;5026732;28;20041;-72
2023/08/17 01:22:33;;;;;;;3.80;1.15;;;17.30;99.90;;;;;;5027697;28;20056;-72
2023/08/17 01:24:58;;;;;;;4.85;0.57;;;17.30;99.90;;;;;;5026661;28;20232;-72
2023/08/17 01:27:24;;;;;;;3.13;0.52;;;17.30;99.90;;;;;;5010096;28;20537;-72
2023/08/17 01:29:51;;;;;;;3.15;0.45;;;17.20;99.90;;;;;;5026790;28;20041;-73
2023/08/17 01:32:35;;;;;;;2.28;0.60;;;17.20;99.90;;;;;;5027919;28;20500;-72
2023/08/17 01:35:48;;;;;;;2.20;0.52;;;17.20;99.90;;;;;;5026590;28;20672;-72
2023/08/17 01:38:18;;;;;;;4.22;0.65;;;17.10;99.90;;;;;;5013873;28;20072;-73
2023/08/17 01:40:45;;;;;;;1.48;0.38;;;17.10;99.90;;;;;;5026584;28;20045;-73
2023/08/17 01:43:12;;;;;;;2.22;0.50;;;17.10;99.90;;;;;;5027226;28;20163;-73
2023/08/17 01:45:37;;;;;;;6.85;0.93;;;17.00;99.90;;;;;;5027000;28;20041;-72
2023/08/17 01:48:03;;;;;;;7.90;1.00;;;17.10;99.90;;;;;;5026257;28;20029;-75
2023/08/17 01:50:29;;;;;;;4.63;0.70;;;17.10;99.90;;;;;;5026603;28;20416;-72
2023/08/17 01:52:54;;;;;;;1.67;0.57;;;17.00;99.90;;;;;;5026516;28;20046;-72
2023/08/17 01:55:21;;;;;;;4.03;0.93;;;17.00;99.90;;;;;;5027277;28;20125;-72
2023/08/17 01:57:46;;;;;;;2.92;1.05;;;17.00;99.90;;;;;;5023227;28;20116;-72
2023/08/17 02:00:13;;;;;;;1.83;0.60;;;17.00;99.90;;;;;;5009537;28;20569;-72
2023/08/17 02:02:38;;;;;;;1.80;0.50;;;17.00;99.90;;;;;;5027668;28;20057;-73
2023/08/17 02:05:04;;;;;;;2.47;0.70;;;17.00;99.90;;;;;;5026211;28;20489;-72
2023/08/17 02:07:30;;;;;;;2.70;0.55;;;17.10;99.90;;;;;;5026897;28;20124;-72
2023/08/17 02:09:55;;;;;;;2.92;0.68;;;17.10;99.90;;;;;;5023571;28;20424;-72
2023/08/17 02:12:21;;;;;;;3.17;1.10;;;17.10;99.90;;;;;;5008982;28;20043;-74
2023/08/17 02:14:46;;;;;;;4.22;0.93;;;17.10;99.90;;;;;;5025361;28;20559;-72
2023/08/17 02:17:13;;;;;;;3.92;0.88;;;17.20;99.90;;;;;;5027281;28;20489;-72
2023/08/17 02:19:38;;;;;;;2.42;0.70;;;17.20;99.90;;;;;;5027145;28;20029;-72
2023/08/17 02:22:05;;;;;;;2.60;0.75;;;17.20;99.90;;;;;;5000570;28;20042;-74
2023/08/17 02:24:30;;;;;;;2.10;0.60;;;17.10;99.90;;;;;;5027083;28;20068;-73
2023/08/17 02:26:56;;;;;;;3.25;0.75;;;17.10;99.90;;;;;;5025903;28;20449;-72
2023/08/17 02:29:22;;;;;;;3.00;0.50;;;17.10;99.90;;;;;;5027430;28;20030;-73
2023/08/17 02:31:47;;;;;;;4.15;0.75;;;17.10;99.90;;;;;;5008329;28;20431;-72
2023/08/17 02:34:13;;;;;;;2.30;0.70;;;17.00;99.90;;;;;;5027135;28;20034;-72
2023/08/17 02:36:38;;;;;;;2.85;0.80;;;17.00;99.90;;;;;;5026992;28;20140;-73
2023/08/17 02:39:04;;;;;;;4.28;0.70;;;17.00;99.90;;;;;;5025914;28;20040;-73
2023/08/17 02:41:31;;;;;;;3.47;0.60;;;17.00;99.90;;;;;;5019852;28;20091;-72
2023/08/17 02:43:57;;;;;;;3.00;0.52;;;16.90;99.90;;;;;;5004959;28;20049;-72
2023/08/17 02:46:23;;;;;;;1.67;0.82;;;16.90;99.90;;;;;;5026828;28;20626;-73
2023/08/17 02:48:49;;;;;;;3.45;0.60;;;16.90;99.90;;;;;;5023791;28;20030;-74
2023/08/17 02:51:15;;;;;;;2.67;0.68;;;16.90;99.90;;;;;;5008865;28;20397;-73
2023/08/17 02:53:41;;;;;;;1.40;0.73;;;16.90;99.90;;;;;;5026323;28;20036;-72
2023/08/17 02:56:06;;;;;;;2.42;0.77;;;16.80;99.90;;;;;;5008587;28;20039;-73
2023/08/17 02:58:32;;;;;;;2.38;0.50;;;16.80;99.90;;;;;;5024331;28;20113;-71
2023/08/17 03:00:57;;;;;;;1.88;0.82;;;16.80;99.90;;;;;;5008875;28;20397;-72
2023/08/17 03:03:23;;;;;;;3.17;0.52;;;16.80;99.90;;;;;;5030472;28;20059;-72
2023/08/17 03:05:49;;;;;;;4.85;0.90;;;16.90;99.90;;;;;;5216052;23;20041;-69
2023/08/17 03:08:14;;;;;;;7.53;1.27;;;16.90;99.90;;;;;;5046252;28;20032;-70
2023/08/17 03:10:41;;;;;;;1.83;0.85;;;16.90;99.90;;;;;;5047918;28;20661;-70
2023/08/17 03:13:06;;;;;;;3.10;0.82;;;16.90;99.90;;;;;;5032049;28;20055;-71
2023/08/17 03:15:32;;;;;;;2.22;0.80;;;16.90;99.90;;;;;;5017861;28;20029;-69
2023/08/17 03:17:57;;;;;;;2.55;0.70;;;16.90;99.90;;;;;;5011561;28;20025;-69
2023/08/17 03:20:23;;;;;;;4.60;0.90;;;16.90;99.90;;;;;;5030410;28;20107;-71
2023/08/17 03:22:48;;;;;;;1.40;0.70;;;16.90;99.90;;;;;;5028941;28;20075;-70
2023/08/17 03:25:14;;;;;;;1.58;0.63;;;16.90;99.90;;;;;;5012448;28;20041;-70
2023/08/17 03:27:39;;;;;;;5.53;0.60;;;16.90;99.90;;;;;;5012243;28;20124;-73
2023/08/17 03:30:06;;;;;;;2.78;0.70;;;16.90;99.90;;;;;;5007829;28;20147;-69
2023/08/17 03:32:31;;;;;;;3.40;0.60;;;16.90;99.90;;;;;;5012407;28;20413;-69
2023/08/17 03:34:57;;;;;;;3.22;0.93;;;17.00;99.90;;;;;;5029437;28;20033;-69
2023/08/17 03:37:22;;;;;;;3.25;1.20;;;16.90;99.90;;;;;;5029940;28;20557;-70
2023/08/17 03:39:48;;;;;;;8.13;0.88;;;16.90;99.90;;;;;;5011593;28;20417;-69
2023/08/17 03:42:13;;;;;;;5.20;1.15;;;17.00;99.90;;;;;;5012195;28;20478;-69
2023/08/17 03:44:39;;;;;;;2.17;0.47;;;16.90;99.90;;;;;;5010147;28;20123;-69
2023/08/17 03:47:05;;;;;;;3.90;0.65;;;16.90;99.90;;;;;;5029317;28;20091;-71
2023/08/17 03:49:30;;;;;;;4.82;0.60;;;17.00;99.90;;;;;;5027581;28;20052;-69
2023/08/17 03:51:56;;;;;;;6.00;0.93;;;17.00;99.90;;;;;;5028948;28;20060;-70
2023/08/17 03:54:21;;;;;;;2.67;0.57;;;17.00;99.90;;;;;;5029430;28;20033;-71
2023/08/17 03:56:47;;;;;;;11.18;0.82;;;16.90;99.90;;;;;;5029021;28;20049;-70
2023/08/17 03:59:13;;;;;;;2.17;0.95;;;16.90;99.90;;;;;;5027802;28;20064;-72
2023/08/17 04:01:39;;;;;;;3.28;0.90;;;17.00;99.90;;;;;;5029540;28;20029;-69
2023/08/17 04:04:05;;;;;;;2.55;0.70;;;16.90;99.90;;;;;;5028224;28;20806;-68
2023/08/17 04:06:30;;;;;;;2.25;0.60;;;16.90;99.90;;;;;;5029103;28;20042;-69
2023/08/17 04:08:56;;;;;;;4.05;0.60;;;16.90;99.90;;;;;;5028315;28;20041;-71
2023/08/17 04:11:21;;;;;;;2.30;0.70;;;16.90;99.90;;;;;;5028631;28;20033;-70
2023/08/17 04:13:47;;;;;;;4.68;0.52;;;16.90;99.90;;;;;;5009310;28;20026;-69
2023/08/17 04:16:12;;;;;;;1.38;0.45;;;16.90;99.90;;;;;;5029060;28;20385;-69
2023/08/17 04:18:38;;;;;;;3.22;0.82;;;16.90;99.90;;;;;;5011693;28;20117;-69
2023/08/17 04:21:04;;;;;;;3.25;0.68;;;16.90;99.90;;;;;;5010592;28;20083;-70
2023/08/17 04:23:29;;;;;;;4.25;0.98;;;16.90;99.90;;;;;;5029188;28;20059;-69
2023/08/17 04:25:55;;;;;;;6.47;0.73;;;16.90;99.90;;;;;;5010329;28;20025;-71
2023/08/17 04:28:21;;;;;;;1.85;0.95;;;16.90;99.90;;;;;;5029104;28;20132;-69
2023/08/17 04:30:46;;;;;;;3.25;0.77;;;16.90;99.90;;;;;;5009953;28;20037;-70
2023/08/17 04:33:12;;;;;;;2.40;0.40;;;16.90;99.90;;;;;;5029251;28;20049;-70
2023/08/17 04:35:38;;;;;;;3.40;0.68;;;16.90;99.90;;;;;;5029379;28;20034;-69
2023/08/17 04:38:04;;;;;;;1.63;0.70;;;16.90;99.90;;;;;;5028117;28;20030;-71
2023/08/17 04:40:30;;;;;;;1.92;0.50;;;16.90;99.90;;;;;;5028815;28;20543;-70
2023/08/17 04:42:55;;;;;;;4.05;1.08;;;16.90;99.90;;;;;;5010353;28;20113;-70
2023/08/17 04:45:21;;;;;;;2.65;0.40;;;16.90;99.90;;;;;;5028831;28;20063;-69
2023/08/17 04:47:47;;;;;;;1.83;1.00;;;16.90;99.90;;;;;;5009983;28;20033;-70
2023/08/17 04:50:16;;;;;;;3.10;0.50;;;16.90;99.90;;;;;;5028853;28;20033;-70
2023/08/17 04:52:44;;;;;;;4.90;0.63;;;16.90;99.90;;;;;;5010299;28;20144;-70
2023/08/17 04:55:11;;;;;;;2.65;0.90;;;16.80;99.90;;;;;;5028386;28;20040;-69
2023/08/17 04:57:36;;;;;;;3.97;0.55;;;16.90;99.90;;;;;;5027110;28;20040;-69
2023/08/17 05:00:03;;;;;;;3.05;0.50;;;16.80;99.90;;;;;;5009834;28;20041;-69
2023/08/17 05:02:28;;;;;;;1.85;0.43;;;16.80;99.90;;;;;;5001847;28;20041;-69
2023/08/17 05:04:54;;;;;;;4.45;0.60;;;16.80;99.90;;;;;;5027134;28;20044;-71
2023/08/17 05:07:19;;;;;;;4.75;0.88;;;16.70;99.90;;;;;;5010527;28;20037;-71
2023/08/17 05:09:45;;;;;;;7.75;1.20;;;16.80;99.90;;;;;;5002673;28;20383;-69
2023/08/17 05:12:11;;;;;;;4.32;1.50;;;16.80;99.90;;;;;;5017033;28;20105;-71
2023/08/17 05:14:36;;;;;;;5.75;0.98;;;16.80;99.90;;;;;;4998555;28;20080;-70
2023/08/17 05:17:02;;;;;;;2.88;0.82;;;16.80;99.90;;;;;;5004798;28;20104;-69
2023/08/17 05:19:27;;;;;;;5.80;0.68;;;16.90;99.90;;;;;;5020991;28;20517;-70
2023/08/17 05:21:53;;;;;;;0.82;0.35;;;16.90;99.90;;;;;;5013168;28;20033;-71
2023/08/17 05:24:20;;;;;;;3.50;1.10;;;16.90;99.90;;;;;;5025702;28;20046;-70
2023/08/17 05:26:46;;;;;;;3.30;0.60;;;16.90;99.90;;;;;;5022095;28;20033;-70
2023/08/17 05:29:11;;;;;;;6.18;0.70;;;16.90;99.90;;;;;;5000932;28;20033;-70
2023/08/17 05:31:37;;;;;;;2.95;0.30;;;16.90;99.90;;;;;;5024352;28;20033;-69
2023/08/17 05:34:02;;;;;;;4.05;0.70;;;16.90;99.90;;;;;;5025309;28;20095;-72
2023/08/17 05:36:28;;;;;;;3.25;0.88;;;16.90;99.90;;;;;;5022416;28;20034;-70
2023/08/17 05:38:53;;;;;;;2.65;0.98;;;16.90;99.90;;;;;;5026233;28;20068;-69
2023/08/17 05:41:19;;;;;;;2.97;0.77;;;17.00;99.90;;;;;;5025029;28;20025;-69
2023/08/17 05:43:45;;;;;;;2.63;0.57;;;17.00;99.90;;;;;;5008345;28;20071;-70
2023/08/17 05:46:10;;;;;;;3.28;0.60;;;17.00;99.90;;;;;;5022408;28;20501;-71
2023/08/17 05:48:36;;;;;;;1.63;0.40;;;17.10;99.90;;;;;;5022923;28;20044;-72
2023/08/17 05:51:02;;;;;;;1.95;0.75;;;17.20;99.90;;;;;;5007822;28;20496;-70
2023/08/17 05:53:27;;;;;;;2.42;0.40;;;17.20;99.90;;;;;;5009303;28;20063;-69
2023/08/17 05:55:53;;;;;;;1.52;0.35;;;17.20;99.90;;;;;;5026131;28;20025;-70
2023/08/17 05:58:18;;;;;;;1.27;0.45;;;17.20;99.90;;;;;;5025780;28;20029;-69
2023/08/17 06:00:44;;;;;;;4.55;1.13;;;17.30;99.90;;;;;;5026573;28;20098;-72
2023/08/17 06:03:10;;;;;;;1.13;0.50;;;17.30;99.90;;;;;;5009156;28;20029;-69
2023/08/17 06:05:36;;;;;;;4.68;0.63;;;17.30;99.90;;;;;;5009045;28;20171;-70
2023/08/17 06:08:01;;;;;;;4.07;0.68;;;17.40;99.90;;;;;;5020830;28;20122;-72
2023/08/17 06:10:27;;;;;;;6.60;0.75;;;17.40;99.90;;;;;;5015546;28;20057;-69
2023/08/17 06:12:57;;;;;;;3.28;0.57;;;17.40;99.90;;;;;;5018177;28;20029;-69
2023/08/17 06:15:23;;;;;;;2.97;0.82;;;17.50;99.90;;;;;;4986640;28;20125;-71
2023/08/17 06:17:52;;;;;;;2.97;0.40;;;17.50;99.90;;;;;;5013937;28;20171;-68
2023/08/17 06:20:18;;;;;;;2.25;0.38;;;17.50;99.90;;;;;;5009232;28;20504;-69
2023/08/17 06:22:44;;;;;;;1.35;0.50;;;17.60;99.90;;;;;;5003015;28;20098;-70
2023/08/17 06:25:09;;;;;;;2.53;0.63;;;17.60;99.90;;;;;;5026663;28;20037;-69
2023/08/17 06:27:35;;;;;;;3.30;0.93;;;17.70;99.90;;;;;;5027239;28;20438;-70
2023/08/17 06:30:02;;;;;;;3.55;0.70;;;17.70;99.90;;;;;;5025971;28;20037;-70
2023/08/17 06:32:29;;;;;;;3.40;1.02;;;17.70;99.90;;;;;;5025886;28;20041;-71
2023/08/17 06:34:55;;;;;;;3.30;0.52;;;17.80;99.90;;;;;;5007695;28;20033;-71
2023/08/17 06:37:20;;;;;;;3.67;0.60;;;18.00;99.90;;;;;;5010262;28;20087;-70
2023/08/17 06:39:46;;;;;;;3.08;0.55;;;18.20;99.90;;;;;;5006952;28;20080;-70
2023/08/17 06:42:11;;;;;;;5.43;0.82;;;18.20;99.90;;;;;;5013458;28;20045;-69
2023/08/17 06:44:37;;;;;;;1.85;0.80;;;18.30;99.90;;;;;;5030766;28;20045;-71
2023/08/17 06:47:03;;;;;;;4.82;0.60;;;18.20;99.90;;;;;;5030260;28;20041;-70
2023/08/17 06:49:28;;;;;;;3.03;0.63;;;18.10;99.90;;;;;;5030125;28;20037;-71
2023/08/17 06:51:54;;;;;;;4.22;0.77;;;18.10;99.90;;;;;;5012151;28;20096;-70
2023/08/17 06:54:19;;;;;;;3.75;0.70;;;18.00;99.90;;;;;;5028490;28;20504;-69
2023/08/17 06:56:45;;;;;;;6.28;0.77;;;18.00;99.90;;;;;;5026544;28;20497;-71
2023/08/17 06:59:11;;;;;;;2.03;0.85;;;17.90;99.90;;;;;;5029038;28;20082;-69
2023/08/17 07:01:36;;;;;;;5.25;0.80;;;17.90;99.90;;;;;;5000118;28;20162;-70
2023/08/17 07:04:02;;;;;;;7.30;0.75;;;17.90;99.90;;;;;;4994581;28;20038;-70
2023/08/17 07:06:28;;;;;;;3.13;0.98;;;18.00;99.90;;;;;;5001990;28;20042;-69
2023/08/17 07:08:54;;;;;;;4.97;0.88;;;18.00;99.90;;;;;;5017666;28;20152;-70
2023/08/17 07:11:20;;;;;;;4.60;0.65;;;18.10;99.90;;;;;;5003270;28;20057;-70
2023/08/17 07:13:45;;;;;;;3.67;0.88;;;18.20;99.90;;;;;;5018409;28;20025;-70
2023/08/17 07:16:11;;;;;;;4.75;0.80;;;18.20;99.90;;;;;;5007381;28;20084;-69
2023/08/17 07:18:37;;;;;;;3.80;1.00;;;18.30;99.90;;;;;;5029629;28;20033;-70
2023/08/17 07:21:02;;;;;;;7.80;1.15;;;18.30;99.90;;;;;;5029060;28;20116;-71
2023/08/17 07:23:28;;;;;;;2.47;0.50;;;18.40;99.90;;;;;;5030473;28;20065;-71
2023/08/17 07:25:53;;;;;;;2.22;0.80;;;18.60;99.90;;;;;;5011176;28;20037;-71
2023/08/17 07:28:19;;;;;;;4.88;1.00;;;18.60;99.90;;;;;;5026684;28;20481;-71
2023/08/17 07:30:45;;;;;;;4.82;0.90;;;18.70;99.90;;;;;;5028803;28;20121;-71
2023/08/17 07:33:10;;;;;;;4.65;1.05;;;18.90;99.90;;;;;;5029346;28;20072;-70
2023/08/17 07:35:36;;;;;;;1.83;0.73;;;19.00;99.90;;;;;;5029461;28;20037;-69
2023/08/17 07:38:01;;;;;;;6.05;0.80;;;19.00;99.90;;;;;;5011442;28;20580;-69
2023/08/17 07:40:27;;;;;;;3.17;0.68;;;19.10;99.90;;;;;;5029525;28;20033;-69
2023/08/17 07:42:53;;;;;;;3.80;1.33;;;19.10;99.90;;;;;;5027676;28;20065;-69
2023/08/17 07:45:18;;;;;;;4.20;0.80;;;19.00;99.90;;;;;;5011765;28;20034;-70
2023/08/17 07:47:44;;;;;;;9.23;0.80;;;19.00;99.90;;;;;;5028778;28;20168;-70
2023/08/17 07:50:10;;;;;;;4.75;0.93;;;19.20;99.90;;;;;;5004697;28;20704;-69
2023/08/17 07:52:35;;;;;;;2.58;0.60;;;19.30;99.90;;;;;;5029778;28;20129;-69
2023/08/17 07:55:01;;;;;;;2.20;0.60;;;19.50;99.90;;;;;;5028554;28;20065;-69
2023/08/17 07:57:26;;;;;;;2.33;0.68;;;19.70;99.90;;;;;;5012016;28;20030;-72
2023/08/17 07:59:53;;;;;;;2.08;0.80;;;19.70;99.90;;;;;;5010922;28;20036;-69
2023/08/17 08:02:19;;;;;;;5.57;0.50;;;19.80;99.90;;;;;;5029074;28;20029;-72
2023/08/17 08:04:45;;;;;;;2.72;0.63;;;19.90;99.90;;;;;;5002968;28;20041;-71
2023/08/17 08:07:10;;;;;;;4.80;0.80;;;20.20;99.90;;;;;;5029608;28;20107;-70
2023/08/17 08:09:36;;;;;;;2.13;0.80;;;20.40;99.90;;;;;;5008053;28;20497;-71
2023/08/17 08:12:02;;;;;;;1.45;0.55;;;20.50;99.90;;;;;;5010954;28;20035;-71
2023/08/17 08:14:29;;;;;;;2.53;0.50;;;20.60;99.90;;;;;;5011784;28;20033;-70
2023/08/17 08:16:54;;;;;;;3.83;0.43;;;20.70;99.90;;;;;;5028829;28;20116;-70
2023/08/17 08:19:20;;;;;;;4.95;0.60;;;20.80;99.90;;;;;;5032164;28;20175;-69
2023/08/17 08:21:45;;;;;;;5.57;0.68;;;20.80;99.90;;;;;;5032251;28;20519;-70
2023/08/17 08:24:11;;;;;;;2.28;0.85;;;20.80;99.90;;;;;;5033114;28;20120;-69
2023/08/17 08:26:36;;;;;;;2.00;0.60;;;20.80;99.90;;;;;;5011670;28;20034;-70
2023/08/17 08:29:02;;;;;;;2.90;0.63;;;20.90;99.90;;;;;;5025542;28;20051;-69
2023/08/17 08:31:27;;;;;;;1.67;0.40;;;21.00;99.90;;;;;;5029529;28;20563;-71
2023/08/17 08:33:54;;;;;;;0.98;0.30;;;21.20;99.90;;;;;;5010351;28;20041;-71
2023/08/17 08:36:19;;;;;;;1.63;0.60;;;21.30;99.90;;;;;;5011024;28;20117;-70
2023/08/17 08:38:45;;;;;;;6.32;0.40;;;21.30;99.90;;;;;;5009974;28;20116;-70
2023/08/17 08:41:11;;;;;;;6.82;1.00;;;21.40;99.90;;;;;;5026333;28;20076;-70
2023/08/17 08:43:38;;;;;;;4.70;0.73;;;21.30;99.90;;;;;;5022940;28;20385;-70
2023/08/17 08:46:05;;;;;;;4.47;1.35;;;21.20;99.90;;;;;;5025526;28;20112;-71
2023/08/17 08:48:31;;;;;;;0.80;0.45;;;21.20;99.90;;;;;;5009711;28;20033;-70
2023/08/17 08:51:00;;;;;;;5.00;0.90;;;21.20;99.90;;;;;;5025540;28;20041;-70
2023/08/17 08:53:42;;;;;;;1.83;0.63;;;21.10;99.90;;;;;;5028708;28;20049;-70
2023/08/17 08:56:11;;;;;;;6.55;0.50;;;21.10;99.90;;;;;;5024420;28;20393;-70
2023/08/17 08:58:38;;;;;;;5.03;0.60;;;21.10;99.90;;;;;;5024353;28;20113;-69
2023/08/17 09:01:04;;;;;;;3.40;0.90;;;21.30;99.90;;;;;;5027294;28;20022;-70
2023/08/17 09:03:32;;;;;;;1.67;0.60;;;21.40;99.90;;;;;;5010676;28;20042;-69
2023/08/17 09:05:58;;;;;;;1.98;0.55;;;21.40;99.90;;;;;;5009470;28;20048;-70
2023/08/17 09:08:27;;;;;;;3.60;0.90;;;21.60;99.90;;;;;;5028351;28;20034;-70
2023/08/17 09:10:53;;;;;;;4.28;0.68;;;21.80;99.90;;;;;;5002679;28;20160;-71
2023/08/17 09:13:18;;;;;;;8.25;1.25;;;21.70;99.90;;;;;;5028270;28;20116;-71
2023/08/17 09:15:44;;;;;;;3.45;0.57;;;21.70;99.90;;;;;;5009625;28;20095;-76
2023/08/17 09:18:10;;;;;;;2.15;0.70;;;21.70;99.90;;;;;;5018879;28;20112;-71
2023/08/17 09:20:41;;;;;;;6.38;0.50;;;21.60;99.90;;;;;;5027433;28;20037;-71
2023/08/17 09:23:14;;;;;;;3.28;0.40;;;21.50;99.90;;;;;;5025319;28;20822;-71
2023/08/17 09:25:42;;;;;;;4.40;0.90;;;21.50;99.90;;;;;;5018508;28;20568;-71
2023/08/17 09:28:10;;;;;;;5.38;0.90;;;21.60;99.90;;;;;;5022380;28;20033;-71
2023/08/17 09:31:00;;;;;;;3.80;0.68;;;21.60;99.90;;;;;;5023017;28;20049;-71
2023/08/17 09:33:28;;;;;;;3.00;0.85;;;21.80;99.90;;;;;;4999832;28;20037;-71
2023/08/17 09:35:55;;;;;;;5.50;0.82;;;21.90;99.90;;;;;;5008777;28;20142;-70
2023/08/17 09:38:21;;;;;;;2.00;0.38;;;21.90;99.90;;;;;;5019809;28;20148;-72
2023/08/17 09:40:50;;;;;;;3.72;0.57;;;21.90;99.90;;;;;;5024780;28;20344;-72
2023/08/17 09:43:16;;;;;;;4.50;1.17;;;22.10;99.90;;;;;;5010423;28;20536;-71
2023/08/17 09:45:49;;;;;;;2.03;0.50;;;22.30;99.90;;;;;;5027044;28;20513;-70
2023/08/17 09:48:19;;;;;;;1.52;0.70;;;22.20;99.90;;;;;;4995668;28;20037;-71
2023/08/17 09:50:47;;;;;;;;;;;22.10;99.90;;;;;;5022463;28;20088;-72
2023/08/17 09:53:17;;;;;;;1.13;0.40;;;22.00;99.90;;;;;;5027673;28;19963;-70
2023/08/17 09:55:46;;;;;;;4.00;1.15;;;22.10;99.90;;;;;;5015760;28;20041;-71
2023/08/17 09:58:16;;;;;;;4.05;0.88;;;22.20;99.90;;;;;;5024394;28;20569;-70
2023/08/17 10:00:46;;;;;;;1.90;0.50;;;22.30;99.90;;;;;;5026876;28;20042;-75
2023/08/17 10:03:14;;;;;;;3.47;0.90;;;22.00;99.90;;;;;;4994288;28;20112;-70
2023/08/17 10:05:42;;;;;;;1.98;0.40;;;22.00;99.90;;;;;;5019395;28;20034;-72
2023/08/17 10:08:10;;;;;;;1.85;0.50;;;22.10;99.90;;;;;;5026940;28;20041;-69
2023/08/17 10:10:40;;;;;;;4.95;1.13;;;22.10;99.90;;;;;;5026378;28;20044;-70
2023/08/17 10:13:11;;;;;;;0.85;0.30;;;22.20;99.90;;;;;;5025960;28;20504;-70
2023/08/17 10:15:44;;;;;;;2.90;0.40;;;22.40;99.90;;;;;;5018636;28;20125;-71
2023/08/17 10:18:32;;;;;;;6.30;0.85;;;22.50;99.90;;;;;;5019607;28;20030;-72
2023/08/17 10:21:01;;;;;;;6.63;0.90;;;22.60;99.90;;;;;;5008109;28;20057;-72
2023/08/17 10:23:28;;;;;;;5.50;0.85;;;22.60;99.90;;;;;;5027187;28;20148;-72
2023/08/17 10:25:55;;;;;;;3.03;0.88;;;22.60;99.90;;;;;;5008170;28;20050;-72
2023/08/17 10:28:22;;;;;;;6.28;1.00;;;22.60;99.90;;;;;;5026876;28;20045;-72
2023/08/17 10:30:48;;;;;;;3.80;0.68;;;22.60;99.90;;;;;;5025985;28;20497;-72
2023/08/17 10:33:14;;;;;;;2.30;0.70;;;22.60;99.90;;;;;;5026830;28;20042;-72
2023/08/17 10:35:41;;;;;;;2.72;0.63;;;22.50;99.90;;;;;;5005699;28;20504;-72
2023/08/17 10:38:07;;;;;;;1.75;0.60;;;22.40;99.90;;;;;;5000176;28;20030;-72
2023/08/17 10:40:37;;;;;;;4.13;0.73;;;22.40;99.90;;;;;;5026984;28;20034;-72
2023/08/17 10:43:02;;;;;;;;;;;22.20;99.90;;;;;;5026781;28;20057;-70
2023/08/17 10:45:31;;;;;;;5.60;1.05;;;22.20;99.90;;;;;;5008925;28;19921;-71
2023/08/17 10:48:09;;;;;;;1.90;0.77;;;22.30;99.90;;;;;;5025230;28;20435;-70
2023/08/17 10:50:36;;;;;;;4.45;1.50;;;22.40;99.90;;;;;;5027073;28;20033;-70
2023/08/17 10:53:12;;;;;;;6.25;1.23;;;22.40;99.90;;;;;;5026539;28;20037;-70
2023/08/17 10:55:39;;;;;;;2.28;0.82;;;22.40;99.90;;;;;;5002046;28;20713;-70
2023/08/17 10:58:08;;;;;;;2.85;0.65;;;22.50;99.90;;;;;;5015450;28;20204;-70
2023/08/17 11:00:41;;;;;;;5.50;0.80;;;22.50;99.90;;;;;;5027071;28;20044;-70
2023/08/17 11:03:09;;;;;;;8.18;1.63;;;22.60;99.90;;;;;;4993454;28;20532;-70
2023/08/17 11:05:42;;;;;;;2.15;0.70;;;22.60;99.90;;;;;;5018909;28;20048;-70
2023/08/17 11:08:10;;;;;;;4.10;1.20;;;22.70;99.90;;;;;;5019244;28;20677;-70
2023/08/17 11:10:37;;;;;;;2.90;1.10;;;22.70;99.90;;;;;;5020720;28;20033;-70
2023/08/17 11:13:03;;;;;;;3.35;0.95;;;22.60;99.90;;;;;;5008440;28;20469;-71
2023/08/17 11:15:42;;;;;;;3.03;0.88;;;22.60;99.90;;;;;;5017108;28;20030;-70
2023/08/17 11:18:10;;;;;;;2.92;0.90;;;22.60;99.90;;;;;;5018664;28;20037;-70
2023/08/17 11:20:37;;;;;;;5.18;1.65;;;22.70;99.90;;;;;;5026780;28;20710;-71
2023/08/17 11:23:04;;;;;;;7.88;1.50;;;22.80;99.90;;;;;;5032342;28;20060;-70
2023/08/17 11:25:32;;;;;;;2.78;0.98;;;22.80;99.90;;;;;;5032491;28;20140;-70
2023/08/17 11:27:59;;;;;;;5.47;1.67;;;22.80;99.90;;;;;;5022389;28;20453;-72
2023/08/17 11:30:27;;;;;;;2.88;1.20;;;22.70;99.90;;;;;;5008413;28;20120;-72
2023/08/17 11:32:54;;;;;;;4.15;1.13;;;22.70;99.90;;;;;;5011743;28;20413;-72
2023/08/17 11:35:21;;;;;;;5.30;1.10;;;22.60;99.90;;;;;;5029736;28;20029;-70
2023/08/17 11:37:48;;;;;;;2.90;1.15;;;22.60;99.90;;;;;;5011557;28;20045;-73
2023/08/17 11:40:14;;;;;;;5.15;1.20;;;22.70;99.90;;;;;;5030440;28;20464;-71
2023/08/17 11:42:40;;;;;;;2.67;0.93;;;22.70;99.90;;;;;;5021515;28;20048;-70
2023/08/17 11:45:09;;;;;;;2.67;0.82;;;22.80;99.90;;;;;;5019402;28;20041;-72
2023/08/17 11:47:35;;;;;;;8.25;2.28;;;22.70;99.90;;;;;;5004735;28;20120;-73
2023/08/17 11:50:05;;;;;;;7.55;1.42;;;22.70;99.90;;;;;;5028678;28;20033;-72
2023/08/17 11:52:32;;;;;;;3.63;1.10;;;22.80;99.90;;;;;;5012233;28;20037;-70
2023/08/17 11:54:59;;;;;;;4.70;1.55;;;22.80;99.90;;;;;;5028327;28;20030;-70
2023/08/17 11:57:25;;;;;;;4.25;0.98;;;22.70;99.90;;;;;;5028835;28;20034;-71
2023/08/17 11:59:58;;;;;;;4.72;1.60;;;22.60;99.90;;;;;;5008982;28;20523;-72
2023/08/17 12:02:24;;;;;;;4.03;0.90;;;22.60;99.90;;;;;;5009680;28;20481;-71
2023/08/17 12:04:50;;;;;;;4.55;1.20;;;22.50;99.90;;;;;;5026850;28;20044;-72
2023/08/17 12:07:17;;;;;;;4.18;1.45;;;22.40;99.90;;;;;;5028604;28;20548;-71
2023/08/17 12:09:44;;;;;;;3.65;1.40;;;22.60;99.90;;;;;;5028563;28;20087;-72
2023/08/17 12:12:10;;;;;;;4.25;0.98;;;22.60;99.90;;;;;;5029289;28;20476;-71
2023/08/17 12:14:36;;;;;;;4.22;1.27;;;22.70;99.90;;;;;;5026529;28;20037;-71
2023/08/17 12:17:02;;;;;;;4.47;1.05;;;22.70;99.90;;;;;;5028229;28;20040;-71
2023/08/17 12:19:29;;;;;;;4.90;1.27;;;22.60;99.90;;;;;;5029425;28;20061;-71
2023/08/17 12:21:55;;;;;;;3.08;1.33;;;22.60;99.90;;;;;;5028512;28;20133;-71
2023/08/17 12:24:23;;;;;;;4.43;1.45;;;22.40;99.90;;;;;;5029153;28;20041;-71
2023/08/17 12:26:49;;;;;;;2.83;1.27;;;22.30;99.90;;;;;;5010435;28;20029;-70
2023/08/17 12:29:15;;;;;;;5.50;1.58;;;22.30;99.90;;;;;;5029240;28;20029;-72
2023/08/17 12:31:40;;;;;;;6.78;1.40;;;22.30;99.90;;;;;;5026337;28;20060;-72
2023/08/17 12:34:06;;;;;;;5.85;1.15;;;22.20;99.90;;;;;;5007251;28;20370;-71
2023/08/17 12:36:32;;;;;;;5.07;1.10;;;22.20;99.90;;;;;;5029099;28;20100;-72
2023/08/17 12:38:58;;;;;;;5.40;1.27;;;22.10;99.90;;;;;;5009941;28;20060;-71
2023/08/17 12:41:23;;;;;;;3.53;1.30;;;22.10;99.90;;;;;;5029367;28;20041;-71
2023/08/17 12:43:49;;;;;;;4.93;1.02;;;22.10;99.90;;;;;;5021992;28;20030;-71
2023/08/17 12:46:15;;;;;;;2.85;1.20;;;22.20;99.90;;;;;;5009448;28;20065;-71